Anna II — SW7403 — position and weather

sailwx.info

Track history (hours):
 
Tides and Currents Weather Stations Pressure Air Temp Water Temp Dewpoint Dewpoint Depression Visibility Wind Speed Wind Dir Waves Ship Positions

Anna II

Last reported at 2018-Jun-20 16:06 UTC. Time now 2018-Jun-20 23:09 UTC.
Position N 37°58' E 023°13'.

Length 31 m; draft 2.5 m.

Type: Ship. MMSI: 237019100.

Date/timePositionNaut miles runAvg speedWind from/ knotsBaromVisibWave heightAir tempDewpointWater temp
2018-Jun-20 16:06N 37°58' E 023°13'0 0.0
2018-Jun-20 16:01N 37°58' E 023°13'1 2.7
2018-Jun-20 15:31N 37°57' E 023°12'4 8.8
2018-Jun-20 15:00N 37°55' E 023°07'4 8.6
2018-Jun-20 14:30N 37°55' E 023°01'4 7.7
2018-Jun-20 14:00N 37°57' E 022°57'3 4.9
2018-Jun-20 13:23N 37°55' E 023°00'0 0.9
2018-Jun-20 13:00N 37°55' E 023°01'4 8.8
2018-Jun-20 12:30N 37°55' E 023°06'4 8.8
2018-Jun-20 12:00N 37°56' E 023°11'2 3.5
2018-Jun-20 11:30N 37°58' E 023°13'0 0.7
2018-Jun-20 11:00N 37°58' E 023°13'3 5.2
2018-Jun-20 10:30N 37°56' E 023°10'4 8.6
2018-Jun-20 10:00N 37°55' E 023°05'4 7.0
2018-Jun-20 09:30N 37°55' E 023°01'0 0.0
2018-Jun-20 09:00N 37°55' E 023°01'3 3.8
2018-Jun-20 08:19N 37°57' E 022°58'2 3.3
2018-Jun-20 07:42N 37°55' E 023°00'1 2.6
2018-Jun-20 07:30N 37°55' E 023°01'2 3.4
2018-Jun-20 07:00N 37°53' E 023°00'0 0.0
2018-Jun-19 19:52N 37°53' E 023°00'0 0.0
2018-Jun-19 19:30N 37°53' E 023°00'0 0.6
2018-Jun-19 18:59N 37°53' E 023°01'3 7.3
2018-Jun-19 18:30N 37°54' E 023°05'4 7.2
2018-Jun-19 18:00N 37°55' E 023°09'4 7.0
2018-Jun-19 17:30N 37°58' E 023°13'3 5.1
2018-Jun-19 17:00N 37°55' E 023°14'510.4
2018-Jun-19 16:30N 37°51' E 023°17'510.5
2018-Jun-19 16:00N 37°46' E 023°20'4 7.9
2018-Jun-19 15:30N 37°42' E 023°22'0 0.0
2018-Jun-19 15:00N 37°42' E 023°22'0 0.0
2018-Jun-19 14:30N 37°42' E 023°22'4 7.3
2018-Jun-19 14:00N 37°39' E 023°24'610.2
2018-Jun-19 13:26N 37°33' E 023°25'3 1.1
2018-Jun-19 10:40N 37°30' E 023°26'2 9.3
2018-Jun-19 10:27N 37°32' E 023°25'510.8
2018-Jun-19 10:00N 37°37' E 023°25'510.8
2018-Jun-19 09:30N 37°43' E 023°25'2 4.5
2018-Jun-19 09:00N 37°45' E 023°26'0 0.0
2018-Jun-19 08:26N 37°45' E 023°26'0 0.0
2018-Jun-19 07:34N 37°45' E 023°26'0 0.0
2018-Jun-19 07:30N 37°45' E 023°26'0 0.0
2018-Jun-19 06:57N 37°45' E 023°26'3 7.5
2018-Jun-19 06:30N 37°47' E 023°23'510.9
2018-Jun-19 06:00N 37°51' E 023°18'510.5
2018-Jun-19 05:30N 37°56' E 023°14'3 5.1
2018-Jun-19 05:00N 37°58' E 023°13'1 1.8
2018-Jun-19 04:30N 37°57' E 023°12'3 7.0
2018-Jun-19 04:00N 37°55' E 023°08'4 7.2
2018-Jun-19 03:30N 37°54' E 023°04'3 5.8
2018-Jun-19 03:00N 37°53' E 023°00'0 0.0
2018-Jun-18 16:45N 37°53' E 023°00'1 3.9
2018-Jun-18 16:30N 37°54' E 023°01'4 6.0
2018-Jun-18 15:51N 37°57' E 022°58'2 5.6
2018-Jun-18 15:26N 37°55' E 023°00'2 4.2
2018-Jun-18 15:00N 37°54' E 023°02'511.0
2018-Jun-18 14:30N 37°51' E 023°08'5 9.9
2018-Jun-18 14:00N 37°48' E 023°13'5 9.9
2018-Jun-18 13:30N 37°45' E 023°18'4 8.8
2018-Jun-18 13:00N 37°42' E 023°22'0 0.1
2018-Jun-18 12:30N 37°42' E 023°22'0 0.0
2018-Jun-18 12:00N 37°42' E 023°22'0 0.0
2018-Jun-18 11:30N 37°42' E 023°22'0 0.0
2018-Jun-18 11:00N 37°42' E 023°22'4 2.5
2018-Jun-18 09:35N 37°45' E 023°26'0 0.1
2018-Jun-18 09:30N 37°45' E 023°26'0 0.0
2018-Jun-18 08:58N 37°45' E 023°26'0 0.0
2018-Jun-18 08:30N 37°45' E 023°26'1 2.0
2018-Jun-18 08:00N 37°45' E 023°24'510.0
2018-Jun-18 07:29N 37°48' E 023°19'510.0
2018-Jun-18 06:59N 37°50' E 023°13'510.2
2018-Jun-18 06:30N 37°52' E 023°08'510.0
2018-Jun-18 06:00N 37°54' E 023°02'1 2.2
2018-Jun-18 05:30N 37°55' E 023°01'0 0.0
2018-Jun-18 05:00N 37°55' E 023°01'2 0.2
2018-Jun-17 17:54N 37°53' E 023°00'3 6.6
2018-Jun-17 17:30N 37°54' E 023°04'4 9.0
2018-Jun-17 17:00N 37°55' E 023°09'4 7.4
2018-Jun-17 16:30N 37°58' E 023°13'2 3.9
2018-Jun-17 16:00N 37°56' E 023°11'4 8.3
2018-Jun-17 15:30N 37°55' E 023°06'4 8.4
2018-Jun-17 15:00N 37°55' E 023°01'4 7.1
2018-Jun-17 14:30N 37°57' E 022°57'1 1.3
2018-Jun-17 14:00N 37°58' E 022°58'4 8.0
2018-Jun-17 13:30N 37°55' E 023°01'5 9.6
2018-Jun-17 13:00N 37°55' E 023°07'5 9.1
2018-Jun-17 12:30N 37°57' E 023°12'1 1.9
2018-Jun-17 12:00N 37°58' E 023°13'2 4.1
2018-Jun-17 11:30N 37°57' E 023°10'3 7.0
2018-Jun-17 11:00N 37°55' E 023°07'4 7.3
2018-Jun-17 10:30N 37°54' E 023°02'2 0.1
2018-Jun-16 22:50N 37°53' E 023°00'0 0.1
2018-Jun-16 22:30N 37°53' E 023°00'2 3.4
2018-Jun-16 22:00N 37°55' E 023°01'0 0.0
2018-Jun-16 21:30N 37°55' E 023°01'1 2.1
2018-Jun-16 21:00N 37°54' E 023°02'2 4.5
2018-Jun-16 20:30N 37°52' E 023°02'2 4.2
2018-Jun-16 20:00N 37°54' E 023°01'1 2.0
2018-Jun-16 19:30N 37°55' E 023°01'4 7.1
2018-Jun-16 18:59N 37°58' E 022°57'1 1.5
2018-Jun-16 18:30N 37°58' E 022°57'4 3.9
2018-Jun-16 17:31N 37°55' E 023°00'0 3.7
2018-Jun-16 17:30N 37°55' E 023°00'0 1.0
2018-Jun-16 17:00N 37°55' E 023°01'0 0.0
2018-Jun-16 16:30N 37°55' E 023°01'0 0.0
2018-Jun-16 16:00N 37°55' E 023°01'0 0.0
2018-Jun-16 15:30N 37°55' E 023°01'0 0.0
2018-Jun-16 15:00N 37°55' E 023°01'2 3.3
2018-Jun-16 14:30N 37°53' E 023°00'0 0.0
2018-Jun-16 09:41N 37°53' E 023°00'1 3.4
2018-Jun-16 09:30N 37°54' E 023°01'4 5.6
2018-Jun-16 08:46N 37°57' E 022°58'2 4.6
2018-Jun-16 08:15N 37°55' E 023°00'1 2.5
2018-Jun-16 08:00N 37°55' E 023°01'0 0.3
2018-Jun-16 07:30N 37°55' E 023°01'0 0.5
2018-Jun-16 07:00N 37°55' E 023°01'2 0.1
2018-Jun-15 16:56N 37°53' E 023°00'1 2.7
2018-Jun-15 16:31N 37°54' E 023°01'3 5.1
2018-Jun-15 15:54N 37°57' E 022°58'2 4.8
2018-Jun-15 15:26N 37°55' E 023°00'2 5.5
2018-Jun-15 15:00N 37°54' E 023°02'510.1
2018-Jun-15 14:30N 37°51' E 023°08'510.1
2018-Jun-15 14:00N 37°48' E 023°13'510.1
2018-Jun-15 13:30N 37°45' E 023°18'4 8.1
2018-Jun-15 13:00N 37°42' E 023°22'0 0.0
2018-Jun-15 12:30N 37°42' E 023°22'0 0.0
2018-Jun-15 12:00N 37°42' E 023°22'0 0.0
2018-Jun-15 11:30N 37°42' E 023°22'0 0.0
2018-Jun-15 11:00N 37°42' E 023°22'4 6.3
2018-Jun-15 10:26N 37°45' E 023°26'0 0.0
2018-Jun-15 10:00N 37°45' E 023°26'0 0.0
2018-Jun-15 09:26N 37°45' E 023°26'0 0.0
2018-Jun-15 08:54N 37°45' E 023°26'0 0.0
2018-Jun-15 08:30N 37°45' E 023°26'0 0.1
2018-Jun-15 07:56N 37°45' E 023°25'4 9.7
2018-Jun-15 07:29N 37°47' E 023°21'5 9.7
2018-Jun-15 07:00N 37°49' E 023°15'510.1
2018-Jun-15 06:30N 37°51' E 023°10'510.0
2018-Jun-15 06:00N 37°54' E 023°04'3 5.6
2018-Jun-15 05:30N 37°55' E 023°01'0 1.0
2018-Jun-15 05:00N 37°54' E 023°01'1 0.1
2018-Jun-14 19:08N 37°53' E 023°00'0 0.0
2018-Jun-14 18:26N 37°53' E 023°00'2 5.6
2018-Jun-14 18:00N 37°54' E 023°03'4 8.4
2018-Jun-14 17:30N 37°55' E 023°08'4 7.9
2018-Jun-14 17:00N 37°57' E 023°12'3 5.2
2018-Jun-14 16:30N 37°55' E 023°14'510.7
2018-Jun-14 16:00N 37°50' E 023°17'510.3
2018-Jun-14 15:30N 37°46' E 023°20'4 7.4
2018-Jun-14 15:00N 37°42' E 023°22'0 0.0
2018-Jun-14 14:30N 37°42' E 023°22'0 0.0
2018-Jun-14 14:00N 37°42' E 023°22'5 9.3
2018-Jun-14 13:30N 37°38' E 023°25'7 2.1
2018-Jun-14 10:16N 37°31' E 023°25'610.8
2018-Jun-14 09:43N 37°37' E 023°25'210.8
2018-Jun-14 09:30N 37°40' E 023°25'510.5
2018-Jun-14 09:00N 37°45' E 023°26'0 0.0
2018-Jun-14 08:30N 37°45' E 023°26'0 0.0
2018-Jun-14 08:00N 37°45' E 023°26'0 0.0
2018-Jun-14 07:30N 37°45' E 023°26'1 2.2
2018-Jun-14 06:59N 37°45' E 023°24'511.1
2018-Jun-14 06:30N 37°50' E 023°20'510.7
2018-Jun-14 06:00N 37°54' E 023°16'5 9.5
2018-Jun-14 05:30N 37°58' E 023°13'0 0.0
2018-Jun-14 05:00N 37°58' E 023°13'1 2.3
2018-Jun-14 04:30N 37°57' E 023°12'3 7.0
2018-Jun-14 04:00N 37°55' E 023°08'4 7.7
2018-Jun-14 03:30N 37°54' E 023°03'2 0.1
2018-Jun-13 09:17N 37°53' E 023°00'1 4.0
2018-Jun-13 09:00N 37°54' E 023°01'4 5.0
2018-Jun-13 08:18N 37°57' E 022°58'2 5.5
2018-Jun-13 07:54N 37°55' E 023°00'1 1.3
2018-Jun-13 07:30N 37°55' E 023°01'0 0.1
2018-Jun-13 07:00N 37°55' E 023°01'2 0.1
2018-Jun-12 18:55N 37°53' E 023°00'2 4.9
2018-Jun-12 18:30N 37°54' E 023°03'5 9.1
2018-Jun-12 18:00N 37°55' E 023°08'4 7.8
2018-Jun-12 17:30N 37°57' E 023°12'2 3.6
2018-Jun-12 17:00N 37°56' E 023°14'611.2
2018-Jun-12 16:30N 37°51' E 023°17'510.9
2018-Jun-12 16:00N 37°46' E 023°20'4 7.9
2018-Jun-12 15:30N 37°42' E 023°22'0 0.0
2018-Jun-12 15:00N 37°42' E 023°22'0 0.0
2018-Jun-12 14:30N 37°42' E 023°22'3 6.3
2018-Jun-12 14:00N 37°40' E 023°24'710.7
2018-Jun-12 13:20N 37°33' E 023°25'1 0.4
2018-Jun-12 10:30N 37°31' E 023°25'610.8
2018-Jun-12 09:57N 37°37' E 023°26'510.8
2018-Jun-12 09:29N 37°42' E 023°25'2 3.1
2018-Jun-12 08:44N 37°45' E 023°26'0 0.0
2018-Jun-12 08:30N 37°45' E 023°26'0 0.0
2018-Jun-12 07:58N 37°45' E 023°26'0 0.0
2018-Jun-12 07:28N 37°45' E 023°26'0 0.0
2018-Jun-12 06:58N 37°45' E 023°26'4 8.1
2018-Jun-12 06:28N 37°48' E 023°22'511.0
2018-Jun-12 06:00N 37°52' E 023°18'510.9
2018-Jun-12 05:30N 37°56' E 023°14'2 3.9
2018-Jun-12 05:00N 37°58' E 023°13'1 2.2
2018-Jun-12 04:30N 37°57' E 023°12'4 7.2
2018-Jun-12 04:00N 37°55' E 023°08'4 7.3
2018-Jun-12 03:30N 37°54' E 023°04'3 0.4
2018-Jun-11 20:39N 37°53' E 023°00'0 0.0
2018-Jun-11 20:30N 37°53' E 023°00'0 0.0
2018-Jun-10 18:37N 37°53' E 023°00'0 0.2
2018-Jun-10 18:30N 37°53' E 023°00'3 5.7
2018-Jun-10 18:00N 37°54' E 023°04'3 7.0
2018-Jun-10 17:30N 37°55' E 023°08'4 7.3
2018-Jun-10 17:00N 37°57' E 023°12'1 1.5
2018-Jun-10 16:30N 37°57' E 023°11'  
Track history (hours):
 
Tides and Currents Weather Stations Pressure Air Temp Water Temp Dewpoint Dewpoint Depression Visibility Wind Speed Wind Dir Waves Ship Positions

Anna II

Last reported at 2018-Jun-20 16:06 UTC. Time now 2018-Jun-20 23:09 UTC.
Position N 37°58' E 023°13'.

Length 31 m; draft 2.5 m.

Type: Ship. MMSI: 237019100.

Date/timePositionNaut miles runAvg speedWind from/ knotsBaromVisibWave heightAir tempDewpointWater temp
2018-Jun-20 16:06N 37°58' E 023°13'0 0.0
2018-Jun-20 16:01N 37°58' E 023°13'1 2.7
2018-Jun-20 15:31N 37°57' E 023°12'4 8.8
2018-Jun-20 15:00N 37°55' E 023°07'4 8.6
2018-Jun-20 14:30N 37°55' E 023°01'4 7.7
2018-Jun-20 14:00N 37°57' E 022°57'3 4.9
2018-Jun-20 13:23N 37°55' E 023°00'0 0.9
2018-Jun-20 13:00N 37°55' E 023°01'4 8.8
2018-Jun-20 12:30N 37°55' E 023°06'4 8.8
2018-Jun-20 12:00N 37°56' E 023°11'2 3.5
2018-Jun-20 11:30N 37°58' E 023°13'0 0.7
2018-Jun-20 11:00N 37°58' E 023°13'3 5.2
2018-Jun-20 10:30N 37°56' E 023°10'4 8.6
2018-Jun-20 10:00N 37°55' E 023°05'4 7.0
2018-Jun-20 09:30N 37°55' E 023°01'0 0.0
2018-Jun-20 09:00N 37°55' E 023°01'3 3.8
2018-Jun-20 08:19N 37°57' E 022°58'2 3.3
2018-Jun-20 07:42N 37°55' E 023°00'1 2.6
2018-Jun-20 07:30N 37°55' E 023°01'2 3.4
2018-Jun-20 07:00N 37°53' E 023°00'0 0.0
2018-Jun-19 19:52N 37°53' E 023°00'0 0.0
2018-Jun-19 19:30N 37°53' E 023°00'0 0.6
2018-Jun-19 18:59N 37°53' E 023°01'3 7.3
2018-Jun-19 18:30N 37°54' E 023°05'4 7.2
2018-Jun-19 18:00N 37°55' E 023°09'4 7.0
2018-Jun-19 17:30N 37°58' E 023°13'3 5.1
2018-Jun-19 17:00N 37°55' E 023°14'510.4
2018-Jun-19 16:30N 37°51' E 023°17'510.5
2018-Jun-19 16:00N 37°46' E 023°20'4 7.9
2018-Jun-19 15:30N 37°42' E 023°22'0 0.0
2018-Jun-19 15:00N 37°42' E 023°22'0 0.0
2018-Jun-19 14:30N 37°42' E 023°22'4 7.3
2018-Jun-19 14:00N 37°39' E 023°24'610.2
2018-Jun-19 13:26N 37°33' E 023°25'3 1.1
2018-Jun-19 10:40N 37°30' E 023°26'2 9.3
2018-Jun-19 10:27N 37°32' E 023°25'510.8
2018-Jun-19 10:00N 37°37' E 023°25'510.8
2018-Jun-19 09:30N 37°43' E 023°25'2 4.5
2018-Jun-19 09:00N 37°45' E 023°26'0 0.0
2018-Jun-19 08:26N 37°45' E 023°26'0 0.0
2018-Jun-19 07:34N 37°45' E 023°26'0 0.0
2018-Jun-19 07:30N 37°45' E 023°26'0 0.0
2018-Jun-19 06:57N 37°45' E 023°26'3 7.5
2018-Jun-19 06:30N 37°47' E 023°23'510.9
2018-Jun-19 06:00N 37°51' E 023°18'510.5
2018-Jun-19 05:30N 37°56' E 023°14'3 5.1
2018-Jun-19 05:00N 37°58' E 023°13'1 1.8
2018-Jun-19 04:30N 37°57' E 023°12'3 7.0
2018-Jun-19 04:00N 37°55' E 023°08'4 7.2
2018-Jun-19 03:30N 37°54' E 023°04'3 5.8
2018-Jun-19 03:00N 37°53' E 023°00'0 0.0
2018-Jun-18 16:45N 37°53' E 023°00'1 3.9
2018-Jun-18 16:30N 37°54' E 023°01'4 6.0
2018-Jun-18 15:51N 37°57' E 022°58'2 5.6
2018-Jun-18 15:26N 37°55' E 023°00'2 4.2
2018-Jun-18 15:00N 37°54' E 023°02'511.0
2018-Jun-18 14:30N 37°51' E 023°08'5 9.9
2018-Jun-18 14:00N 37°48' E 023°13'5 9.9
2018-Jun-18 13:30N 37°45' E 023°18'4 8.8
2018-Jun-18 13:00N 37°42' E 023°22'0 0.1
2018-Jun-18 12:30N 37°42' E 023°22'0 0.0
2018-Jun-18 12:00N 37°42' E 023°22'0 0.0
2018-Jun-18 11:30N 37°42' E 023°22'0 0.0
2018-Jun-18 11:00N 37°42' E 023°22'4 2.5
2018-Jun-18 09:35N 37°45' E 023°26'0 0.1
2018-Jun-18 09:30N 37°45' E 023°26'0 0.0
2018-Jun-18 08:58N 37°45' E 023°26'0 0.0
2018-Jun-18 08:30N 37°45' E 023°26'1 2.0
2018-Jun-18 08:00N 37°45' E 023°24'510.0
2018-Jun-18 07:29N 37°48' E 023°19'510.0
2018-Jun-18 06:59N 37°50' E 023°13'510.2
2018-Jun-18 06:30N 37°52' E 023°08'510.0
2018-Jun-18 06:00N 37°54' E 023°02'1 2.2
2018-Jun-18 05:30N 37°55' E 023°01'0 0.0
2018-Jun-18 05:00N 37°55' E 023°01'2 0.2
2018-Jun-17 17:54N 37°53' E 023°00'3 6.6
2018-Jun-17 17:30N 37°54' E 023°04'4 9.0
2018-Jun-17 17:00N 37°55' E 023°09'4 7.4
2018-Jun-17 16:30N 37°58' E 023°13'2 3.9
2018-Jun-17 16:00N 37°56' E 023°11'4 8.3
2018-Jun-17 15:30N 37°55' E 023°06'4 8.4
2018-Jun-17 15:00N 37°55' E 023°01'4 7.1
2018-Jun-17 14:30N 37°57' E 022°57'1 1.3
2018-Jun-17 14:00N 37°58' E 022°58'4 8.0
2018-Jun-17 13:30N 37°55' E 023°01'5 9.6
2018-Jun-17 13:00N 37°55' E 023°07'5 9.1
2018-Jun-17 12:30N 37°57' E 023°12'1 1.9
2018-Jun-17 12:00N 37°58' E 023°13'2 4.1
2018-Jun-17 11:30N 37°57' E 023°10'3 7.0
2018-Jun-17 11:00N 37°55' E 023°07'4 7.3
2018-Jun-17 10:30N 37°54' E 023°02'2 0.1
2018-Jun-16 22:50N 37°53' E 023°00'0 0.1
2018-Jun-16 22:30N 37°53' E 023°00'2 3.4
2018-Jun-16 22:00N 37°55' E 023°01'0 0.0
2018-Jun-16 21:30N 37°55' E 023°01'1 2.1
2018-Jun-16 21:00N 37°54' E 023°02'2 4.5
2018-Jun-16 20:30N 37°52' E 023°02'2 4.2
2018-Jun-16 20:00N 37°54' E 023°01'1 2.0
2018-Jun-16 19:30N 37°55' E 023°01'4 7.1
2018-Jun-16 18:59N 37°58' E 022°57'1 1.5
2018-Jun-16 18:30N 37°58' E 022°57'4 3.9
2018-Jun-16 17:31N 37°55' E 023°00'0 3.7
2018-Jun-16 17:30N 37°55' E 023°00'0 1.0
2018-Jun-16 17:00N 37°55' E 023°01'0 0.0
2018-Jun-16 16:30N 37°55' E 023°01'0 0.0
2018-Jun-16 16:00N 37°55' E 023°01'0 0.0
2018-Jun-16 15:30N 37°55' E 023°01'0 0.0
2018-Jun-16 15:00N 37°55' E 023°01'2 3.3
2018-Jun-16 14:30N 37°53' E 023°00'0 0.0
2018-Jun-16 09:41N 37°53' E 023°00'1 3.4
2018-Jun-16 09:30N 37°54' E 023°01'4 5.6
2018-Jun-16 08:46N 37°57' E 022°58'2 4.6
2018-Jun-16 08:15N 37°55' E 023°00'1 2.5
2018-Jun-16 08:00N 37°55' E 023°01'0 0.3
2018-Jun-16 07:30N 37°55' E 023°01'0 0.5
2018-Jun-16 07:00N 37°55' E 023°01'2 0.1
2018-Jun-15 16:56N 37°53' E 023°00'1 2.7
2018-Jun-15 16:31N 37°54' E 023°01'3 5.1
2018-Jun-15 15:54N 37°57' E 022°58'2 4.8
2018-Jun-15 15:26N 37°55' E 023°00'2 5.5
2018-Jun-15 15:00N 37°54' E 023°02'510.1
2018-Jun-15 14:30N 37°51' E 023°08'510.1
2018-Jun-15 14:00N 37°48' E 023°13'510.1
2018-Jun-15 13:30N 37°45' E 023°18'4 8.1
2018-Jun-15 13:00N 37°42' E 023°22'0 0.0
2018-Jun-15 12:30N 37°42' E 023°22'0 0.0
2018-Jun-15 12:00N 37°42' E 023°22'0 0.0
2018-Jun-15 11:30N 37°42' E 023°22'0 0.0
2018-Jun-15 11:00N 37°42' E 023°22'4 6.3
2018-Jun-15 10:26N 37°45' E 023°26'0 0.0
2018-Jun-15 10:00N 37°45' E 023°26'0 0.0
2018-Jun-15 09:26N 37°45' E 023°26'0 0.0
2018-Jun-15 08:54N 37°45' E 023°26'0 0.0
2018-Jun-15 08:30N 37°45' E 023°26'0 0.1
2018-Jun-15 07:56N 37°45' E 023°25'4 9.7
2018-Jun-15 07:29N 37°47' E 023°21'5 9.7
2018-Jun-15 07:00N 37°49' E 023°15'510.1
2018-Jun-15 06:30N 37°51' E 023°10'510.0
2018-Jun-15 06:00N 37°54' E 023°04'3 5.6
2018-Jun-15 05:30N 37°55' E 023°01'0 1.0
2018-Jun-15 05:00N 37°54' E 023°01'1 0.1
2018-Jun-14 19:08N 37°53' E 023°00'0 0.0
2018-Jun-14 18:26N 37°53' E 023°00'2 5.6
2018-Jun-14 18:00N 37°54' E 023°03'4 8.4
2018-Jun-14 17:30N 37°55' E 023°08'4 7.9
2018-Jun-14 17:00N 37°57' E 023°12'3 5.2
2018-Jun-14 16:30N 37°55' E 023°14'510.7
2018-Jun-14 16:00N 37°50' E 023°17'510.3
2018-Jun-14 15:30N 37°46' E 023°20'4 7.4
2018-Jun-14 15:00N 37°42' E 023°22'0 0.0
2018-Jun-14 14:30N 37°42' E 023°22'0 0.0
2018-Jun-14 14:00N 37°42' E 023°22'5 9.3
2018-Jun-14 13:30N 37°38' E 023°25'7 2.1
2018-Jun-14 10:16N 37°31' E 023°25'610.8
2018-Jun-14 09:43N 37°37' E 023°25'210.8
2018-Jun-14 09:30N 37°40' E 023°25'510.5
2018-Jun-14 09:00N 37°45' E 023°26'0 0.0
2018-Jun-14 08:30N 37°45' E 023°26'0 0.0
2018-Jun-14 08:00N 37°45' E 023°26'0 0.0
2018-Jun-14 07:30N 37°45' E 023°26'1 2.2
2018-Jun-14 06:59N 37°45' E 023°24'511.1
2018-Jun-14 06:30N 37°50' E 023°20'510.7
2018-Jun-14 06:00N 37°54' E 023°16'5 9.5
2018-Jun-14 05:30N 37°58' E 023°13'0 0.0
2018-Jun-14 05:00N 37°58' E 023°13'1 2.3
2018-Jun-14 04:30N 37°57' E 023°12'3 7.0
2018-Jun-14 04:00N 37°55' E 023°08'4 7.7
2018-Jun-14 03:30N 37°54' E 023°03'2 0.1
2018-Jun-13 09:17N 37°53' E 023°00'1 4.0
2018-Jun-13 09:00N 37°54' E 023°01'4 5.0
2018-Jun-13 08:18N 37°57' E 022°58'2 5.5
2018-Jun-13 07:54N 37°55' E 023°00'1 1.3
2018-Jun-13 07:30N 37°55' E 023°01'0 0.1
2018-Jun-13 07:00N 37°55' E 023°01'2 0.1
2018-Jun-12 18:55N 37°53' E 023°00'2 4.9
2018-Jun-12 18:30N 37°54' E 023°03'5 9.1
2018-Jun-12 18:00N 37°55' E 023°08'4 7.8
2018-Jun-12 17:30N 37°57' E 023°12'2 3.6
2018-Jun-12 17:00N 37°56' E 023°14'611.2
2018-Jun-12 16:30N 37°51' E 023°17'510.9
2018-Jun-12 16:00N 37°46' E 023°20'4 7.9
2018-Jun-12 15:30N 37°42' E 023°22'0 0.0
2018-Jun-12 15:00N 37°42' E 023°22'0 0.0
2018-Jun-12 14:30N 37°42' E 023°22'3 6.3
2018-Jun-12 14:00N 37°40' E 023°24'710.7
2018-Jun-12 13:20N 37°33' E 023°25'1 0.4
2018-Jun-12 10:30N 37°31' E 023°25'610.8
2018-Jun-12 09:57N 37°37' E 023°26'510.8
2018-Jun-12 09:29N 37°42' E 023°25'2 3.1
2018-Jun-12 08:44N 37°45' E 023°26'0 0.0
2018-Jun-12 08:30N 37°45' E 023°26'0 0.0
2018-Jun-12 07:58N 37°45' E 023°26'0 0.0
2018-Jun-12 07:28N 37°45' E 023°26'0 0.0
2018-Jun-12 06:58N 37°45' E 023°26'4 8.1
2018-Jun-12 06:28N 37°48' E 023°22'511.0
2018-Jun-12 06:00N 37°52' E 023°18'510.9
2018-Jun-12 05:30N 37°56' E 023°14'2 3.9
2018-Jun-12 05:00N 37°58' E 023°13'1 2.2
2018-Jun-12 04:30N 37°57' E 023°12'4 7.2
2018-Jun-12 04:00N 37°55' E 023°08'4 7.3
2018-Jun-12 03:30N 37°54' E 023°04'3 0.4
2018-Jun-11 20:39N 37°53' E 023°00'0 0.0
2018-Jun-11 20:30N 37°53' E 023°00'0 0.0
2018-Jun-10 18:37N 37°53' E 023°00'0 0.2
2018-Jun-10 18:30N 37°53' E 023°00'3 5.7
2018-Jun-10 18:00N 37°54' E 023°04'3 7.0
2018-Jun-10 17:30N 37°55' E 023°08'4 7.3
2018-Jun-10 17:00N 37°57' E 023°12'1 1.5
2018-Jun-10 16:30N 37°57' E 023°11'  

Dump ship's entire track history